Time;durP1;ratioP1;P1;durP2;ratioP2;P2;SDS_P1;SDS_P2;PMS_P1;PMS_P2;Temp;Humidity;BMP_temperature;BMP_pressure;BME280_temperature;BME280_humidity;BME280_pressure;Samples;Min_cycle;Max_cycle;Signal;HPM_P1;HPM_P2
2022/03/14 00:01:18;;;;;;;16.85;2.85;;;;;;;9.10;79.00;101350.16;5035355;28;20056;-62
2022/03/14 00:03:55;;;;;;;10.40;3.08;;;;;;;9.01;79.68;101354.63;5034847;28;20057;-62
2022/03/14 00:06:23;;;;;;;13.13;2.80;;;;;;;9.12;79.02;101360.84;5035302;28;20045;-62
2022/03/14 00:08:54;;;;;;;10.82;3.13;;;;;;;9.28;78.51;101367.88;5017501;28;20057;-62
2022/03/14 00:11:23;;;;;;;11.02;2.45;;;;;;;9.21;78.02;101372.03;5051899;28;20045;-62
2022/03/14 00:13:50;;;;;;;11.90;3.25;;;;;;;9.33;78.28;101375.25;5054490;28;20086;-63
2022/03/14 00:16:39;;;;;;;13.20;3.15;;;;;;;9.24;78.67;101388.78;5035862;28;20061;-62
2022/03/14 00:19:07;;;;;;;9.98;2.83;;;;;;;9.40;77.83;101383.97;5035105;28;20045;-62
2022/03/14 00:21:38;;;;;;;8.82;2.28;;;;;;;9.26;77.88;101397.56;5034876;28;20436;-63
2022/03/14 00:24:08;;;;;;;11.60;2.58;;;;;;;9.43;77.51;101403.44;5035274;28;20056;-62
2022/03/14 00:26:35;;;;;;;8.93;2.65;;;;;;;9.38;77.05;101400.75;5035170;28;20053;-62
2022/03/14 00:29:06;;;;;;;9.40;2.28;;;;;;;9.27;77.93;101417.63;5035433;28;20052;-62
2022/03/14 00:31:35;;;;;;;15.35;3.00;;;;;;;9.35;76.65;101419.75;5045628;28;20049;-62
2022/03/14 00:34:02;;;;;;;11.60;2.60;;;;;;;9.39;76.71;101429.06;5053778;28;20060;-62
2022/03/14 00:36:30;;;;;;;8.95;2.55;;;;;;;9.40;76.57;101433.44;5053483;28;20488;-62
2022/03/14 00:38:57;;;;;;;10.88;3.15;;;;;;;9.37;76.84;101440.38;5054897;28;20060;-62
2022/03/14 00:41:25;;;;;;;8.52;2.50;;;;;;;9.39;77.15;101442.81;5054979;28;20087;-62
2022/03/14 00:43:52;;;;;;;12.27;2.70;;;;;;;9.16;77.30;101452.63;5054715;28;20045;-62
2022/03/14 00:46:19;;;;;;;16.45;3.03;;;;;;;9.20;77.22;101452.88;5054873;28;20064;-62
2022/03/14 00:48:47;;;;;;;14.80;2.92;;;;;;;9.28;76.88;101446.75;5054576;28;20056;-62
2022/03/14 00:51:15;;;;;;;11.75;2.38;;;;;;;9.21;76.94;101455.31;5054372;28;20404;-62
2022/03/14 00:53:42;;;;;;;10.68;2.70;;;;;;;9.13;77.19;101458.69;5053574;28;20414;-63
2022/03/14 00:56:10;;;;;;;10.63;2.45;;;;;;;9.23;77.01;101463.28;5054838;28;20444;-62
2022/03/14 00:58:37;;;;;;;16.02;3.05;;;;;;;9.29;76.92;101467.66;5055006;28;20049;-62
2022/03/14 01:01:08;;;;;;;12.63;2.65;;;;;;;9.20;77.19;101469.38;5055037;28;20048;-61
2022/03/14 01:03:35;;;;;;;16.10;2.70;;;;;;;9.38;77.29;101476.94;5054597;28;20045;-63
2022/03/14 01:06:04;;;;;;;16.67;2.63;;;;;;;9.35;77.24;101483.81;5053121;28;20060;-62
2022/03/14 01:08:32;;;;;;;16.92;3.13;;;;;;;9.29;76.38;101495.97;5054776;28;20067;-62
2022/03/14 01:10:59;;;;;;;8.43;2.08;;;;;;;9.07;76.93;101493.63;5056449;28;20056;-63
2022/03/14 01:13:26;;;;;;;13.02;2.53;;;;;;;9.02;77.52;101495.59;5058257;28;20543;-63
2022/03/14 01:15:54;;;;;;;16.77;2.60;;;;;;;9.13;77.26;101492.47;5058463;28;20052;-62
2022/03/14 01:18:21;;;;;;;15.20;3.15;;;;;;;9.27;77.32;101503.69;5058375;28;20072;-62
2022/03/14 01:20:49;;;;;;;12.65;3.15;;;;;;;9.19;76.68;101507.00;5057991;28;20057;-62
2022/03/14 01:23:16;;;;;;;14.15;3.47;;;;;;;9.21;76.66;101507.56;5056783;28;20053;-62
2022/03/14 01:25:45;;;;;;;15.77;2.70;;;;;;;9.14;77.15;101512.53;5057100;28;20049;-62
2022/03/14 01:28:13;;;;;;;14.13;2.60;;;;;;;9.16;76.78;101515.00;5058363;28;20064;-62
2022/03/14 01:30:43;;;;;;;12.80;2.55;;;;;;;9.18;76.95;101527.38;5053683;28;20497;-62
2022/03/14 01:33:11;;;;;;;14.93;3.10;;;;;;;9.22;76.62;101524.88;5036702;28;20061;-62
2022/03/14 01:35:40;;;;;;;14.40;2.67;;;;;;;9.36;76.46;101521.22;5020316;28;20049;-62
2022/03/14 01:38:09;;;;;;;11.40;2.72;;;;;;;9.24;75.83;101522.66;5038366;28;20052;-62
2022/03/14 01:40:36;;;;;;;14.38;2.30;;;;;;;9.30;76.51;101532.50;5037943;28;20743;-62
2022/03/14 01:43:04;;;;;;;17.05;3.08;;;;;;;9.18;76.46;101527.38;5035673;28;20045;-62
2022/03/14 01:45:31;;;;;;;16.90;3.17;;;;;;;9.20;76.63;101527.91;5033945;28;20053;-62
2022/03/14 01:47:58;;;;;;;12.27;2.67;;;;;;;9.30;75.75;101532.50;5036843;28;20540;-62
2022/03/14 01:50:25;;;;;;;15.98;2.67;;;;;;;9.27;76.13;101533.09;5037763;28;20512;-62
2022/03/14 01:52:53;;;;;;;15.25;2.65;;;;;;;9.43;75.84;101545.63;5036732;28;20053;-63
2022/03/14 01:55:20;;;;;;;10.98;2.50;;;;;;;9.39;75.39;101548.13;5036904;28;20473;-63
2022/03/14 01:57:48;;;;;;;12.43;2.55;;;;;;;9.42;75.34;101550.31;5037403;28;20049;-63
2022/03/14 02:00:15;;;;;;;19.83;3.47;;;;;;;9.47;75.23;101549.44;5036581;28;20054;-63
2022/03/14 02:02:43;;;;;;;18.58;3.00;;;;;;;9.27;75.55;101552.34;5037580;28;20531;-63
2022/03/14 02:05:12;;;;;;;19.42;3.42;;;;;;;9.33;75.39;101548.47;5035539;28;20060;-63
2022/03/14 02:07:39;;;;;;;14.40;2.80;;;;;;;9.03;76.22;101550.25;5037125;28;20489;-62
2022/03/14 02:10:08;;;;;;;14.88;2.85;;;;;;;9.14;76.23;101548.28;5037547;28;20053;-63
2022/03/14 02:12:35;;;;;;;14.60;2.83;;;;;;;9.07;76.32;101542.28;5037523;28;20052;-63
2022/03/14 02:15:03;;;;;;;12.00;3.00;;;;;;;9.07;76.79;101537.59;5037142;28;20480;-62
2022/03/14 02:17:30;;;;;;;15.93;3.03;;;;;;;9.07;76.80;101550.50;5037408;28;20517;-62
2022/03/14 02:20:00;;;;;;;14.73;2.50;;;;;;;9.22;76.04;101549.63;5037255;28;20045;-62
2022/03/14 02:22:27;;;;;;;16.55;3.33;;;;;;;9.08;76.55;101549.44;5036463;28;20065;-62
2022/03/14 02:24:55;;;;;;;17.88;2.95;;;;;;;9.20;76.24;101551.81;5036018;28;20049;-62
2022/03/14 02:27:22;;;;;;;18.05;2.85;;;;;;;8.93;76.54;101558.56;5036865;28;20063;-62
2022/03/14 02:29:50;;;;;;;18.85;3.30;;;;;;;9.07;76.77;101556.00;5037301;28;20056;-62
2022/03/14 02:32:18;;;;;;;13.35;2.60;;;;;;;8.74;77.70;101562.22;5021464;28;20041;-62
2022/03/14 02:34:45;;;;;;;18.30;3.25;;;;;;;8.75;77.77;101561.91;5032310;28;20057;-62
2022/03/14 02:37:12;;;;;;;18.02;2.97;;;;;;;8.78;78.18;101563.31;5016610;28;20049;-62
2022/03/14 02:39:40;;;;;;;17.58;2.55;;;;;;;8.87;77.89;101564.38;5048344;28;20053;-60
2022/03/14 02:42:08;;;;;;;17.30;4.45;;;;;;;8.87;77.71;101573.41;5015892;28;20046;-62
2022/03/14 02:44:42;;;;;;;23.58;3.13;;;;;;;8.82;77.77;101570.69;5017876;28;20045;-63
2022/03/14 02:47:10;;;;;;;18.90;2.70;;;;;;;8.79;78.23;101579.50;5016998;28;20054;-63
2022/03/14 02:49:38;;;;;;;13.02;2.45;;;;;;;8.99;77.61;101590.41;5041384;28;20381;-62
2022/03/14 02:52:06;;;;;;;16.83;2.60;;;;;;;8.87;77.61;101589.09;5015543;28;20053;-62
2022/03/14 02:54:33;;;;;;;16.63;2.95;;;;;;;8.85;77.72;101596.78;5017010;28;20061;-62
2022/03/14 02:57:01;;;;;;;16.40;3.00;;;;;;;8.80;78.21;101594.06;5016485;28;20685;-62
2022/03/14 02:59:28;;;;;;;19.25;3.30;;;;;;;8.98;77.42;101604.41;5016776;28;20057;-62
2022/03/14 03:01:56;;;;;;;18.20;3.22;;;;;;;8.87;77.49;101609.13;5016898;28;20050;-62
2022/03/14 03:04:23;;;;;;;17.13;2.95;;;;;;;8.77;78.10;101611.09;5016484;28;20054;-63
2022/03/14 03:06:53;;;;;;;15.77;3.05;;;;;;;8.79;78.06;101612.47;5014919;28;20069;-62
2022/03/14 03:09:21;;;;;;;23.58;2.75;;;;;;;8.79;78.04;101620.69;5016675;28;20053;-62
2022/03/14 03:11:48;;;;;;;17.20;3.00;;;;;;;8.84;77.75;101628.91;5016548;28;20053;-62
2022/03/14 03:14:16;;;;;;;15.05;2.72;;;;;;;8.65;78.32;101625.13;5016775;28;20053;-63
2022/03/14 03:16:43;;;;;;;18.90;3.00;;;;;;;8.85;78.08;101646.25;5016562;28;20054;-63
2022/03/14 03:19:12;;;;;;;16.10;2.88;;;;;;;8.90;77.75;101655.28;5016461;28;20058;-63
2022/03/14 03:21:39;;;;;;;11.63;2.67;;;;;;;8.83;77.87;101656.69;5017618;28;20057;-63
2022/03/14 03:24:08;;;;;;;14.00;2.72;;;;;;;8.88;77.26;101662.16;5016479;28;20521;-64
2022/03/14 03:26:39;;;;;;;20.45;3.22;;;;;;;8.66;78.26;101665.25;5031949;28;20060;-63
2022/03/14 03:29:09;;;;;;;16.83;3.83;;;;;;;8.83;77.75;101668.50;5034881;28;20615;-63
2022/03/14 03:31:38;;;;;;;22.17;3.60;;;;;;;8.83;77.23;101667.66;5046052;28;20402;-63
2022/03/14 03:34:06;;;;;;;19.02;3.30;;;;;;;8.78;77.59;101668.50;5055896;28;20530;-62
2022/03/14 03:36:35;;;;;;;22.70;3.33;;;;;;;8.71;77.51;101673.47;5054293;28;20053;-62
2022/03/14 03:39:02;;;;;;;25.13;4.07;;;;;;;8.77;76.99;101686.06;5055712;28;20496;-62
2022/03/14 03:41:29;;;;;;;13.18;3.13;;;;;;;8.50;78.14;101701.22;5053846;28;20075;-62
2022/03/14 03:43:58;;;;;;;19.98;3.45;;;;;;;8.48;78.22;101703.41;5055650;28;20041;-62
2022/03/14 03:46:25;;;;;;;16.67;2.97;;;;;;;8.39;78.56;101703.16;5054357;28;20053;-63
2022/03/14 03:48:53;;;;;;;16.55;2.95;;;;;;;8.51;78.52;101719.34;5054296;28;20061;-62
2022/03/14 03:51:21;;;;;;;18.17;2.92;;;;;;;8.66;77.83;101716.59;5055643;28;20048;-63
2022/03/14 03:53:48;;;;;;;17.73;2.65;;;;;;;8.45;77.61;101720.44;5055650;28;20053;-62
2022/03/14 03:56:16;;;;;;;17.35;2.60;;;;;;;8.28;78.64;101717.97;5055671;28;20053;-62
2022/03/14 03:58:43;;;;;;;21.67;3.63;;;;;;;8.11;79.60;101714.63;5055477;28;20064;-61
2022/03/14 04:01:10;;;;;;;25.13;4.57;;;;;;;8.37;78.74;101721.00;5055829;28;20551;-63
2022/03/14 04:03:38;;;;;;;21.55;4.25;;;;;;;8.33;79.17;101731.72;5055261;28;20049;-62
2022/03/14 04:06:05;;;;;;;15.80;3.03;;;;;;;8.37;78.09;101735.53;5055071;28;20420;-64
2022/03/14 04:08:34;;;;;;;21.17;3.28;;;;;;;8.37;77.94;101741.03;5054949;28;20068;-62
2022/03/14 04:11:06;;;;;;;18.85;3.22;;;;;;;8.24;77.84;101746.25;5055203;28;20044;-62
2022/03/14 04:13:34;;;;;;;19.27;4.03;;;;;;;8.31;78.38;101744.06;5054099;28;20559;-63
2022/03/14 04:16:02;;;;;;;14.48;2.75;;;;;;;8.13;78.37;101745.38;5055281;28;20076;-62
2022/03/14 04:18:29;;;;;;;19.35;3.20;;;;;;;8.09;79.05;101749.75;5054643;28;20052;-62
2022/03/14 04:20:57;;;;;;;18.35;3.05;;;;;;;8.18;78.02;101752.78;5054741;28;20056;-62
2022/03/14 04:23:24;;;;;;;12.02;3.03;;;;;;;7.94;78.74;101763.44;5054798;28;20049;-62
2022/03/14 04:25:55;;;;;;;14.30;3.20;;;;;;;7.98;78.98;101759.06;5055097;28;20064;-62
2022/03/14 04:28:22;;;;;;;17.30;2.95;;;;;;;7.86;79.11;101763.97;5054732;28;20060;-63
2022/03/14 04:30:50;;;;;;;16.85;2.72;;;;;;;7.85;79.09;101767.78;5050412;28;20041;-62
2022/03/14 04:33:17;;;;;;;13.48;2.97;;;;;;;7.89;79.25;101764.25;5035020;28;20053;-62
2022/03/14 04:35:44;;;;;;;15.68;3.35;;;;;;;7.95;79.05;101767.81;5034813;28;20631;-62
2022/03/14 04:38:13;;;;;;;17.23;4.07;;;;;;;7.77;79.31;101776.56;5034883;28;20057;-62
2022/03/14 04:40:40;;;;;;;17.60;3.70;;;;;;;7.97;79.34;101787.56;5034990;28;20370;-62
2022/03/14 04:43:09;;;;;;;23.17;3.80;;;;;;;7.87;79.19;101793.03;5034812;28;20053;-63
2022/03/14 04:45:38;;;;;;;18.80;3.92;;;;;;;7.95;78.54;101800.72;5038005;28;20049;-62
2022/03/14 04:48:10;;;;;;;12.55;3.20;;;;;;;7.97;78.46;101799.38;5037629;28;20393;-62
2022/03/14 04:50:37;;;;;;;17.10;2.88;;;;;;;8.00;78.61;101796.09;5038970;28;20052;-62
2022/03/14 04:53:06;;;;;;;15.77;2.88;;;;;;;8.14;77.88;101798.34;5021488;28;20064;-62
2022/03/14 04:55:37;;;;;;;14.20;3.10;;;;;;;8.00;77.69;101806.25;5039025;28;20064;-63
2022/03/14 04:58:05;;;;;;;16.55;3.33;;;;;;;8.02;77.97;101815.03;5038678;28;20057;-62
2022/03/14 05:00:34;;;;;;;18.42;3.50;;;;;;;8.28;77.67;101821.47;5038950;28;20049;-63
2022/03/14 05:03:05;;;;;;;16.13;3.92;;;;;;;8.02;77.42;101816.97;5038616;28;20080;-61
2022/03/14 05:05:37;;;;;;;24.00;4.35;;;;;;;7.94;77.89;101821.03;5037303;28;20048;-62
2022/03/14 05:08:04;;;;;;;17.30;3.22;;;;;;;7.74;78.60;101819.03;5038398;28;20065;-62
2022/03/14 05:10:32;;;;;;;13.85;4.03;;;;;;;7.70;78.71;101820.69;5038705;28;20045;-63
2022/03/14 05:13:01;;;;;;;18.17;3.60;;;;;;;7.61;79.37;101826.94;5038650;28;20052;-62
2022/03/14 05:15:29;;;;;;;24.30;4.45;;;;;;;7.70;79.36;101839.06;5038858;28;20053;-62
2022/03/14 05:18:01;;;;;;;19.42;4.07;;;;;;;7.58;79.56;101846.66;5037086;28;20050;-63
2022/03/14 05:20:28;;;;;;;21.55;3.78;;;;;;;7.72;79.08;101836.88;5038589;28;20046;-63
2022/03/14 05:22:56;;;;;;;16.15;3.75;;;;;;;7.70;79.04;101842.63;5038519;28;20057;-62
2022/03/14 05:25:23;;;;;;;14.68;3.60;;;;;;;7.81;78.06;101840.75;5038499;28;20481;-62
2022/03/14 05:27:54;;;;;;;19.83;3.85;;;;;;;7.67;78.83;101845.06;5037064;28;20049;-62
2022/03/14 05:30:23;;;;;;;13.40;3.55;;;;;;;7.48;79.39;101850.16;5038937;28;20052;-63
2022/03/14 05:32:51;;;;;;;23.15;4.43;;;;;;;7.50;79.77;101855.38;5058272;28;20064;-63
2022/03/14 05:35:18;;;;;;;16.55;4.10;;;;;;;7.46;80.10;101854.28;5058027;28;20044;-63
2022/03/14 05:37:47;;;;;;;14.95;4.22;;;;;;;7.42;80.40;101858.63;5056917;28;20052;-62
2022/03/14 05:40:16;;;;;;;23.05;4.80;;;;;;;7.49;79.73;101857.31;5058103;28;20075;-63
2022/03/14 05:42:45;;;;;;;19.98;5.05;;;;;;;7.46;80.21;101859.75;5058181;28;20049;-63
2022/03/14 05:45:14;;;;;;;18.35;3.67;;;;;;;7.39;80.26;101865.44;5058062;28;20049;-62
2022/03/14 05:47:41;;;;;;;16.88;3.78;;;;;;;7.41;79.94;101876.19;5057587;28;20049;-62
2022/03/14 05:50:10;;;;;;;16.30;4.10;;;;;;;7.20;80.35;101868.91;5039541;28;20051;-64
2022/03/14 05:52:37;;;;;;;21.00;4.28;;;;;;;7.24;80.24;101879.06;5057887;28;20040;-64
2022/03/14 05:55:08;;;;;;;16.60;3.95;;;;;;;7.31;80.09;101879.66;5039099;28;20053;-62
2022/03/14 05:57:36;;;;;;;19.13;4.35;;;;;;;7.43;79.71;101883.03;5054932;28;20057;-62
2022/03/14 06:00:04;;;;;;;20.63;3.80;;;;;;;7.49;79.27;101882.00;5057744;28;20049;-62
2022/03/14 06:02:47;;;;;;;18.30;4.43;;;;;;;7.53;79.52;101887.78;5057740;28;20053;-62
2022/03/14 06:05:18;;;;;;;16.10;4.63;;;;;;;7.53;79.45;101887.78;5056010;28;20538;-62
2022/03/14 06:07:45;;;;;;;15.00;4.07;;;;;;;7.74;78.56;101889.53;5056748;28;20063;-62
2022/03/14 06:10:15;;;;;;;18.70;4.32;;;;;;;7.82;77.86;101886.28;5039006;28;20044;-64
2022/03/14 06:12:44;;;;;;;20.90;3.90;;;;;;;7.64;78.07;101890.28;5057597;28;20055;-63
2022/03/14 06:15:16;;;;;;;19.27;5.22;;;;;;;7.56;78.33;101892.72;5039537;28;20049;-62
2022/03/14 06:17:44;;;;;;;16.45;4.13;;;;;;;7.47;78.66;101897.03;5056049;28;20080;-62
2022/03/14 06:20:15;;;;;;;17.30;3.80;;;;;;;7.66;77.95;101893.59;5057025;28;20540;-62
2022/03/14 06:22:49;;;;;;;17.27;3.70;;;;;;;7.46;78.28;101898.94;5057217;28;20397;-63
2022/03/14 06:25:19;;;;;;;24.25;4.78;;;;;;;7.58;78.64;101915.22;5056982;28;20045;-64
2022/03/14 06:27:47;;;;;;;17.50;4.63;;;;;;;7.56;78.75;101918.22;5055632;28;20044;-63
2022/03/14 06:30:15;;;;;;;18.52;4.32;;;;;;;7.68;78.19;101927.06;5056997;28;20504;-65
2022/03/14 06:32:43;;;;;;;22.77;4.28;;;;;;;7.52;79.07;101936.28;5057001;28;20059;-63
2022/03/14 06:35:16;;;;;;;18.30;4.28;;;;;;;7.65;78.32;101941.28;5056699;28;20052;-62
2022/03/14 06:37:44;;;;;;;17.50;3.67;;;;;;;7.63;78.92;101946.25;5056739;28;20067;-62
2022/03/14 06:40:12;;;;;;;18.25;3.85;;;;;;;7.78;78.25;101950.97;5056769;28;20519;-63
2022/03/14 06:42:41;;;;;;;19.83;3.90;;;;;;;7.80;77.94;101957.03;5056967;28;20385;-62
2022/03/14 06:45:09;;;;;;;16.65;3.95;;;;;;;7.84;77.54;101958.16;5056831;28;20052;-62
2022/03/14 06:47:38;;;;;;;17.67;5.13;;;;;;;7.82;78.06;101976.78;5056589;28;20045;-63
2022/03/14 06:50:06;;;;;;;22.23;4.70;;;;;;;7.64;78.31;101978.03;5055366;28;20431;-62
2022/03/14 06:52:35;;;;;;;17.95;4.47;;;;;;;7.56;78.82;101983.19;5056803;28;20196;-62
2022/03/14 06:55:05;;;;;;;23.02;4.68;;;;;;;7.72;78.62;101987.69;5056687;28;20626;-63
2022/03/14 06:57:33;;;;;;;18.80;5.55;;;;;;;7.65;78.98;101995.31;5039219;28;20547;-63
2022/03/14 07:00:00;;;;;;;22.15;4.53;;;;;;;7.66;78.62;101996.97;5055225;28;20045;-63
2022/03/14 07:02:28;;;;;;;22.25;4.28;;;;;;;7.68;78.83;102005.75;5056600;28;20060;-63
2022/03/14 07:04:58;;;;;;;26.15;4.82;;;;;;;7.50;78.98;101996.03;5055963;28;20060;-63
2022/03/14 07:07:25;;;;;;;26.70;5.45;;;;;;;7.57;79.57;101999.38;5055670;28;20072;-64
2022/03/14 07:09:54;;;;;;;16.27;4.97;;;;;;;7.54;79.68;102004.56;5054736;28;20459;-62
2022/03/14 07:12:21;;;;;;;19.20;4.80;;;;;;;7.75;78.95;102012.69;5055261;28;20049;-62
2022/03/14 07:14:49;;;;;;;20.10;5.50;;;;;;;7.75;78.80;102020.06;5054478;28;20064;-64
2022/03/14 07:17:16;;;;;;;21.17;4.38;;;;;;;7.82;78.82;102023.41;5055218;28;20064;-62
2022/03/14 07:19:45;;;;;;;19.02;4.45;;;;;;;7.68;78.79;102033.19;5038441;28;20064;-62
2022/03/14 07:22:19;;;;;;;20.90;5.03;;;;;;;7.65;78.80;102031.78;5055511;28;20053;-63
2022/03/14 07:24:53;;;;;;;16.42;4.78;;;;;;;7.79;78.68;102035.72;5047695;28;20041;-62
2022/03/14 07:27:21;;;;;;;21.50;4.93;;;;;;;7.78;78.29;102039.56;5067523;28;20069;-62
2022/03/14 07:29:48;;;;;;;20.80;5.00;;;;;;;7.79;78.21;102051.38;5035502;28;20057;-62
2022/03/14 07:32:15;;;;;;;16.38;4.55;;;;;;;7.85;78.30;102037.44;5048792;28;20045;-62
2022/03/14 07:34:42;;;;;;;13.85;4.80;;;;;;;8.10;78.15;102042.28;5034191;28;20049;-62
2022/03/14 07:37:10;;;;;;;15.93;5.07;;;;;;;8.18;77.69;102054.66;5035379;28;20049;-63
2022/03/14 07:39:37;;;;;;;19.88;4.93;;;;;;;8.13;77.73;102060.09;5035656;28;20519;-62
2022/03/14 07:42:04;;;;;;;20.55;4.80;;;;;;;8.28;77.21;102069.28;5033929;28;20038;-62
2022/03/14 07:44:34;;;;;;;18.52;5.22;;;;;;;8.19;77.45;102072.78;5033441;28;20053;-63
2022/03/14 07:47:03;;;;;;;21.40;6.10;;;;;;;8.22;77.29;102075.00;5033920;28;20056;-62
2022/03/14 07:49:31;;;;;;;16.58;5.25;;;;;;;8.21;77.58;102076.91;5033424;28;20057;-62
2022/03/14 07:51:58;;;;;;;27.45;5.50;;;;;;;7.90;78.24;102092.34;5036019;28;20129;-62
2022/03/14 07:54:25;;;;;;;22.77;5.18;;;;;;;8.11;78.19;102092.50;5034264;28;20053;-63
2022/03/14 07:56:53;;;;;;;17.88;5.03;;;;;;;8.59;76.84;102090.38;5035523;28;20045;-64
2022/03/14 07:59:20;;;;;;;21.13;4.97;;;;;;;8.64;76.46;102106.88;5034598;28;20064;-64
2022/03/14 08:01:47;;;;;;;25.40;5.22;;;;;;;8.71;76.22;102098.38;5042705;28;20044;-63
2022/03/14 08:04:15;;;;;;;16.42;4.68;;;;;;;9.04;75.40;102093.31;5035884;28;20066;-69
2022/03/14 08:06:46;;;;;;;13.93;5.20;;;;;;;9.42;74.99;102093.94;5032865;28;20060;-62
2022/03/14 08:09:13;;;;;;;21.70;6.38;;;;;;;9.09;72.60;102095.22;5034993;28;20056;-62
2022/03/14 08:11:41;;;;;;;22.88;5.78;;;;;;;9.08;74.05;102091.66;5038613;28;20052;-64
2022/03/14 08:14:08;;;;;;;29.40;5.55;;;;;;;8.96;74.10;102093.81;5006593;28;20049;-64
2022/03/14 08:16:36;;;;;;;17.70;5.88;;;;;;;8.82;74.80;102091.84;5032437;28;20509;-64
2022/03/14 08:19:04;;;;;;;18.13;5.07;;;;;;;8.91;73.91;102092.97;5067921;28;20525;-64
2022/03/14 08:21:33;;;;;;;23.85;6.03;;;;;;;8.99;74.58;102100.69;5031489;28;20041;-64
2022/03/14 08:24:00;;;;;;;18.77;5.32;;;;;;;8.81;73.97;102107.50;5033674;28;20061;-64
2022/03/14 08:26:27;;;;;;;15.77;5.68;;;;;;;8.87;74.61;102111.09;5033239;28;20041;-63
2022/03/14 08:28:55;;;;;;;22.55;5.38;;;;;;;8.64;75.25;102117.03;5032630;28;20049;-63
2022/03/14 08:31:26;;;;;;;20.35;5.53;;;;;;;8.67;75.17;102121.97;5032521;28;20056;-63
2022/03/14 08:33:53;;;;;;;22.88;6.28;;;;;;;8.75;74.74;102127.78;5031140;28;20777;-63
2022/03/14 08:36:21;;;;;;;17.42;5.63;;;;;;;8.85;74.84;102124.28;5032185;28;20042;-63
2022/03/14 08:38:48;;;;;;;19.08;5.80;;;;;;;8.97;74.83;102124.88;5028234;28;20057;-63
2022/03/14 08:41:16;;;;;;;18.75;5.78;;;;;;;9.41;73.92;102126.13;5031545;28;20054;-63
2022/03/14 08:43:44;;;;;;;19.98;4.75;;;;;;;9.43;73.00;102131.34;5032273;28;20041;-62
2022/03/14 08:46:12;;;;;;;16.88;5.78;;;;;;;9.40;73.16;102131.88;5033812;28;20046;-64
2022/03/14 08:48:39;;;;;;;19.42;5.07;;;;;;;9.47;72.96;102137.94;5031262;28;20501;-63
2022/03/14 08:51:07;;;;;;;23.05;5.88;;;;;;;9.83;72.64;102153.44;5031566;28;20060;-63
2022/03/14 08:53:34;;;;;;;22.80;5.72;;;;;;;9.73;72.20;102148.72;5032835;28;20056;-62
2022/03/14 08:56:03;;;;;;;20.80;5.97;;;;;;;9.78;72.04;102145.97;5023198;28;20052;-63
2022/03/14 08:58:32;;;;;;;21.37;6.33;;;;;;;9.83;71.93;102150.69;5031627;28;20061;-62
2022/03/14 09:01:01;;;;;;;21.80;5.72;;;;;;;10.03;71.79;102150.69;5030637;28;20052;-63
2022/03/14 09:03:28;;;;;;;18.27;5.43;;;;;;;9.88;71.79;102150.69;5034287;28;20049;-63
2022/03/14 09:05:56;;;;;;;19.58;5.78;;;;;;;9.93;71.16;102157.03;5030858;28;20140;-62
2022/03/14 09:08:24;;;;;;;22.08;5.55;;;;;;;10.15;71.70;102148.50;5032715;28;20061;-62
2022/03/14 09:10:53;;;;;;;20.02;5.47;;;;;;;10.23;71.50;102151.53;5032447;28;20049;-62
2022/03/14 09:13:21;;;;;;;21.05;5.25;;;;;;;10.23;70.95;102149.91;5033140;28;20041;-62
2022/03/14 09:15:49;;;;;;;16.30;5.30;;;;;;;10.20;71.39;102154.84;5065048;28;20064;-62
2022/03/14 09:18:16;;;;;;;22.02;5.82;;;;;;;10.38;71.15;102161.72;5035025;28;20369;-62
2022/03/14 09:20:47;;;;;;;25.92;6.18;;;;;;;10.40;70.56;102161.44;5037038;28;20488;-62
2022/03/14 09:23:20;;;;;;;22.83;6.25;;;;;;;10.66;69.33;102161.13;5028234;28;20053;-63
2022/03/14 09:25:48;;;;;;;23.20;7.90;;;;;;;10.51;69.95;102168.59;5033832;28;20527;-61
2022/03/14 09:28:15;;;;;;;26.88;6.82;;;;;;;10.37;70.47;102167.50;5032454;28;20068;-63
2022/03/14 09:30:44;;;;;;;19.23;5.45;;;;;;;10.45;71.05;102159.50;5031164;28;20054;-63
2022/03/14 09:33:11;;;;;;;20.05;6.32;;;;;;;10.55;70.63;102167.75;5034258;28;20068;-62
2022/03/14 09:35:39;;;;;;;19.67;6.22;;;;;;;10.95;69.76;102173.16;5034499;28;20054;-63
2022/03/14 09:38:07;;;;;;;18.83;6.57;;;;;;;10.74;69.79;102173.53;5032041;28;20045;-61
2022/03/14 09:40:35;;;;;;;20.73;6.47;;;;;;;11.09;69.54;102181.66;5044399;28;20187;-61
2022/03/14 09:43:03;;;;;;;17.10;5.65;;;;;;;10.85;69.89;102175.97;5036016;28;20041;-62
2022/03/14 09:45:32;;;;;;;20.88;6.22;;;;;;;10.96;69.64;102176.75;5033102;28;20052;-63
2022/03/14 09:47:59;;;;;;;19.27;6.05;;;;;;;10.71;69.62;102174.91;5036145;28;20049;-63
2022/03/14 09:50:34;;;;;;;19.58;6.07;;;;;;;10.98;70.29;102178.13;5033983;28;20061;-63
2022/03/14 09:53:07;;;;;;;19.00;5.78;;;;;;;10.78;69.55;102182.88;5036726;28;20525;-62
2022/03/14 09:55:41;;;;;;;22.88;5.32;;;;;;;10.73;70.81;102182.88;5035228;28;20152;-62
2022/03/14 09:58:13;;;;;;;21.40;5.85;;;;;;;10.91;69.94;102182.28;5033830;28;20536;-62
2022/03/14 10:00:42;;;;;;;16.35;5.30;;;;;;;11.15;69.23;102177.78;5029256;28;20432;-66
2022/03/14 10:03:16;;;;;;;22.55;5.53;;;;;;;11.28;69.20;102180.78;5033259;28;20381;-63
2022/03/14 10:05:44;;;;;;;20.65;6.00;;;;;;;11.60;67.98;102179.50;5029081;28;20053;-62
2022/03/14 10:08:12;;;;;;;19.05;4.90;;;;;;;11.66;67.76;102179.25;5036234;28;20057;-62
2022/03/14 10:10:42;;;;;;;17.90;5.93;;;;;;;11.50;68.22;102180.41;5032734;28;20050;-61
2022/03/14 10:13:29;;;;;;;20.25;5.50;;;;;;;11.59;68.11;102169.59;5033158;28;20046;-63
2022/03/14 10:15:57;;;;;;;19.52;5.88;;;;;;;11.70;67.85;102166.50;5035478;28;20054;-62
2022/03/14 10:18:25;;;;;;;22.48;5.63;;;;;;;11.41;68.25;102178.50;5035896;28;20622;-61
2022/03/14 10:20:57;;;;;;;18.67;5.43;;;;;;;11.52;68.30;102169.91;5033875;28;20049;-62
2022/03/14 10:23:39;;;;;;;23.98;5.82;;;;;;;11.43;69.29;102179.06;5034581;28;20049;-63
2022/03/14 10:26:10;;;;;;;25.15;5.38;;;;;;;11.69;68.10;102184.19;5066178;28;20560;-62
2022/03/14 10:28:38;;;;;;;19.15;5.43;;;;;;;11.58;68.77;102185.31;5035630;28;20041;-62
2022/03/14 10:31:34;;;;;;;19.08;5.22;;;;;;;11.73;67.83;102185.28;5033474;28;20045;-62
2022/03/14 10:34:04;;;;;;;23.50;5.85;;;;;;;12.05;67.60;102190.28;5034367;28;20053;-61
2022/03/14 10:36:58;;;;;;;23.35;5.65;;;;;;;12.17;66.91;102193.50;5034810;28;20056;-62
2022/03/14 10:39:32;;;;;;;20.52;6.20;;;;;;;12.03;66.54;102196.09;5031179;28;20064;-62
2022/03/14 10:42:00;;;;;;;22.20;6.30;;;;;;;12.11;66.91;102194.66;5028214;28;20417;-61
2022/03/14 10:44:45;;;;;;;20.02;4.82;;;;;;;12.29;66.37;102193.97;5033845;28;20049;-61
2022/03/14 10:47:13;;;;;;;29.70;5.78;;;;;;;12.45;66.06;102184.41;5035439;28;20042;-64
2022/03/14 10:49:45;;;;;;;19.83;5.10;;;;;;;12.65;64.67;102180.66;5035082;28;20052;-61
2022/03/14 10:52:18;;;;;;;30.83;5.55;;;;;;;12.63;65.02;102186.47;5034035;28;20056;-63
2022/03/14 10:54:46;;;;;;;23.48;5.22;;;;;;;12.79;64.41;102187.97;5032439;28;20042;-62
2022/03/14 10:57:21;;;;;;;28.85;5.88;;;;;;;12.62;64.31;102184.84;5034006;28;20041;-68
2022/03/14 10:59:53;;;;;;;23.05;4.28;;;;;;;12.69;63.50;102182.56;5034300;28;20522;-70
2022/03/14 11:02:23;;;;;;;22.30;5.05;;;;;;;12.63;62.83;102177.34;5031056;28;20068;-67
2022/03/14 11:04:55;;;;;;;20.88;4.43;;;;;;;12.83;62.40;102185.44;5034219;28;20551;-69
2022/03/14 11:07:32;;;;;;;19.08;3.90;;;;;;;12.93;62.15;102194.47;5034064;28;20054;-69
2022/03/14 11:10:06;;;;;;;19.98;4.07;;;;;;;13.02;60.04;102192.72;5029549;28;20053;-69
2022/03/14 11:12:33;;;;;;;22.05;4.43;;;;;;;13.03;61.30;102186.06;5034950;28;20397;-69
2022/03/14 11:15:06;;;;;;;20.27;4.03;;;;;;;13.22;60.87;102186.94;5017611;28;20046;-67
2022/03/14 11:17:35;;;;;;;15.43;3.80;;;;;;;12.89;60.36;102184.25;5034550;28;20042;-71
2022/03/14 11:20:22;;;;;;;20.98;4.10;;;;;;;13.26;60.46;102185.25;5030808;28;21036;-69
2022/03/14 11:22:51;;;;;;;23.90;4.55;;;;;;;13.06;58.55;102174.41;5021946;28;20051;-67
2022/03/14 11:25:20;;;;;;;20.83;3.67;;;;;;;13.05;57.95;102171.94;5035411;28;20045;-67
2022/03/14 11:27:49;;;;;;;20.48;4.38;;;;;;;12.82;58.58;102172.72;5029174;28;20548;-67
2022/03/14 11:30:17;;;;;;;21.83;3.60;;;;;;;13.03;57.93;102174.16;5033695;28;20053;-71
2022/03/14 11:32:45;;;;;;;23.25;4.15;;;;;;;13.26;57.07;102174.19;5030121;28;20053;-71